Charlotte (CLT/KCLT)

Map

Destinations

Information

Location
Charlotte, NC
Local Time
21:50 / 9:50 pm
GMT Time
02:50 / 2:50 am
Gates
Unassigned
No FAA reported delays
METAR KCLT 170218Z 12006KT 10SM OVC009 11/08 A3034 RMK AO2 T01060078
TAF KCLT 170206Z 1702/1724 15006KT P6SM OVC011 FM170400 15006KT P6SM OVC007 FM170600 16005KT 4SM BR OVC003 FM170800 17004KT 2SM BR OVC003 FM171600 21008KT P6SM OVC008 FM172100 22010KT P6SM BKN035
  • No charts available